Time;durP1;ratioP1;P1;durP2;ratioP2;P2;SDS_P1;SDS_P2;PMS_P1;PMS_P2;Temp;Humidity;BMP_temperature;BMP_pressure;BME280_temperature;BME280_humidity;BME280_pressure;Samples;Min_cycle;Max_cycle;Signal;HPM_P1;HPM_P2
2022/02/01 00:02:01;;;;;;;8.82;5.68;;;11.70;71.40;;;;;;5076893;28;20029;-78
2022/02/01 00:04:39;;;;;;;9.98;5.35;;;11.70;71.40;;;;;;5075893;28;20413;-78
2022/02/01 00:09:40;;;;;;;8.75;4.78;;;11.60;71.30;;;;;;5068417;28;20111;-77
2022/02/01 00:14:57;;;;;;;8.60;4.30;;;11.60;71.30;;;;;;5076790;28;20020;-78
2022/02/01 00:17:51;;;;;;;8.77;4.15;;;11.60;71.30;;;;;;5076065;28;20021;-78
2022/02/01 00:33:58;;;;;;;7.75;3.45;;;11.60;71.30;;;;;;5075760;28;20043;-78
2022/02/01 00:36:42;;;;;;;8.68;3.70;;;11.60;71.30;;;;;;5074652;28;20503;-78
2022/02/01 00:39:11;;;;;;;7.70;3.17;;;11.60;71.30;;;;;;5074178;28;20051;-77
2022/02/01 00:41:42;;;;;;;7.68;3.40;;;11.60;71.30;;;;;;5075475;28;20017;-79
2022/02/01 00:44:08;;;;;;;7.07;3.05;;;11.60;71.30;;;;;;5074327;28;20042;-77
2022/02/01 00:46:34;;;;;;;9.23;3.30;;;11.60;71.40;;;;;;5074529;28;20028;-77
2022/02/01 00:49:00;;;;;;;7.68;3.03;;;11.60;71.40;;;;;;5067190;28;20025;-78
2022/02/01 00:51:26;;;;;;;8.30;2.95;;;11.60;71.40;;;;;;5074730;28;20025;-78
2022/02/01 00:53:51;;;;;;;9.68;3.17;;;11.60;71.40;;;;;;5076055;28;20028;-77
2022/02/01 00:56:18;;;;;;;7.28;3.10;;;11.60;71.40;;;;;;5074444;28;20021;-78
2022/02/01 00:58:45;;;;;;;7.93;3.25;;;11.60;71.40;;;;;;5062321;28;20049;-80
2022/02/01 01:01:11;;;;;;;8.40;2.97;;;11.60;71.40;;;;;;5074389;28;20027;-78
2022/02/01 01:03:37;;;;;;;9.45;3.15;;;11.50;71.30;;;;;;5074090;28;20024;-78
2022/02/01 01:06:04;;;;;;;8.40;2.85;;;11.50;71.40;;;;;;5069878;28;20028;-79
2022/02/01 01:08:30;;;;;;;9.13;3.00;;;11.60;71.50;;;;;;5074397;28;20025;-77
2022/02/01 01:10:56;;;;;;;10.45;2.97;;;11.50;71.40;;;;;;5074961;28;20029;-79
2022/02/01 01:13:51;;;;;;;11.00;3.17;;;11.50;71.40;;;;;;5063541;28;20067;-77
2022/02/01 01:16:47;;;;;;;10.57;2.80;;;11.50;71.40;;;;;;5069568;28;20025;-80
2022/02/01 01:38:44;;;;;;;8.73;2.78;;;11.50;71.40;;;;;;5075465;28;20048;-78
2022/02/01 01:43:50;;;;;;;9.27;2.60;;;11.50;71.20;;;;;;5075166;28;20042;-77
2022/02/01 01:53:09;;;;;;;7.82;2.28;;;11.50;71.20;;;;;;5075459;28;20036;-78
2022/02/01 01:54:18;;;;;;;10.10;2.92;;;11.50;71.20;;;;;;5075512;28;20229;-77
2022/02/01 01:56:44;;;;;;;12.07;2.70;;;11.50;71.20;;;;;;5073936;28;20028;-79
2022/02/01 01:59:12;;;;;;;8.70;2.50;;;11.50;71.20;;;;;;5074110;28;20029;-79
2022/02/01 02:01:39;;;;;;;13.63;3.15;;;11.50;71.20;;;;;;5074841;28;20397;-78
2022/02/01 02:04:05;;;;;;;9.38;2.60;;;11.50;71.10;;;;;;5073640;28;20496;-78
2022/02/01 02:06:33;;;;;;;8.50;2.30;;;11.50;71.00;;;;;;5074088;28;20056;-78
2022/02/01 02:09:06;;;;;;;10.73;2.75;;;11.40;71.00;;;;;;5073498;28;20492;-78
2022/02/01 02:14:21;;;;;;;11.48;2.78;;;11.50;71.00;;;;;;5074840;28;20028;-78
2022/02/01 02:16:52;;;;;;;13.20;2.72;;;11.40;71.00;;;;;;5076983;28;20075;-77
2022/02/01 02:19:22;;;;;;;9.13;2.70;;;11.40;71.00;;;;;;5076709;28;20036;-77
2022/02/01 02:21:56;;;;;;;10.27;2.70;;;11.40;70.90;;;;;;5078276;28;20115;-78
2022/02/01 02:24:25;;;;;;;9.63;2.40;;;11.40;70.90;;;;;;5076327;28;20024;-78
2022/02/01 02:26:51;;;;;;;10.57;2.80;;;11.40;70.80;;;;;;5076432;28;20515;-77
2022/02/01 02:29:17;;;;;;;10.07;2.50;;;11.40;70.70;;;;;;5076880;28;20025;-79
2022/02/01 02:31:43;;;;;;;12.68;2.85;;;11.40;70.70;;;;;;5076557;28;20393;-78
2022/02/01 02:34:14;;;;;;;9.80;2.58;;;11.40;70.70;;;;;;5077802;28;20025;-78
2022/02/01 02:36:49;;;;;;;11.00;2.40;;;11.40;70.70;;;;;;5077787;28;20024;-78
2022/02/01 02:41:52;;;;;;;10.43;2.40;;;11.40;70.60;;;;;;5077844;28;20016;-78
2022/02/01 02:47:04;;;;;;;12.02;2.42;;;11.40;70.60;;;;;;5077886;28;20075;-78
2022/02/01 02:49:30;;;;;;;10.10;2.80;;;11.40;70.60;;;;;;5077504;28;20104;-78
2022/02/01 02:51:56;;;;;;;13.02;2.80;;;11.40;70.60;;;;;;5077208;28;20024;-77
2022/02/01 02:54:27;;;;;;;10.00;2.63;;;11.40;70.50;;;;;;5076496;28;20392;-78
2022/02/01 02:56:57;;;;;;;12.52;2.25;;;11.40;70.50;;;;;;5077721;28;20021;-78
2022/02/01 02:59:24;;;;;;;12.82;3.17;;;11.40;70.50;;;;;;5093498;28;20559;-79
2022/02/01 03:01:50;;;;;;;10.75;2.67;;;11.30;70.40;;;;;;5076018;28;20082;-78
2022/02/01 03:04:18;;;;;;;10.63;2.80;;;11.30;70.40;;;;;;5067982;28;20032;-77
2022/02/01 03:06:44;;;;;;;8.68;2.40;;;11.30;70.40;;;;;;5077619;28;20370;-77
2022/02/01 03:09:10;;;;;;;8.85;2.17;;;11.30;70.30;;;;;;5076332;28;20028;-79
2022/02/01 03:11:37;;;;;;;10.07;2.30;;;11.30;70.30;;;;;;5077345;28;20021;-78
2022/02/01 03:14:12;;;;;;;10.65;2.33;;;11.30;70.40;;;;;;5077171;28;20074;-77
2022/02/01 03:22:06;;;;;;;9.68;2.30;;;11.30;70.40;;;;;;5077477;28;20112;-78
2022/02/01 03:24:31;;;;;;;8.90;2.10;;;11.40;70.40;;;;;;5082792;22;20817;-74
2022/02/01 03:26:57;;;;;;;9.15;2.28;;;11.40;70.40;;;;;;5056375;28;20021;-75
2022/02/01 03:29:23;;;;;;;11.48;2.53;;;11.30;70.40;;;;;;5058594;28;20027;-74
2022/02/01 03:31:49;;;;;;;10.07;2.15;;;11.30;70.40;;;;;;5052047;28;20063;-74
2022/02/01 03:34:14;;;;;;;10.02;2.25;;;11.30;70.50;;;;;;5053310;28;20079;-74
2022/02/01 03:36:40;;;;;;;9.90;2.58;;;11.30;70.50;;;;;;5051370;28;20025;-74
2022/02/01 03:39:06;;;;;;;11.82;2.60;;;11.30;70.50;;;;;;5036615;28;20025;-74
2022/02/01 03:41:31;;;;;;;10.98;2.55;;;11.30;70.50;;;;;;5033015;28;20060;-74
2022/02/01 03:43:59;;;;;;;11.95;2.22;;;11.30;70.50;;;;;;5032012;28;20061;-74
2022/02/01 03:46:25;;;;;;;7.70;2.15;;;11.30;70.60;;;;;;5033158;28;20025;-74
2022/02/01 03:48:50;;;;;;;10.15;2.00;;;11.30;71.10;;;;;;5031820;28;20403;-75
2022/02/01 03:51:16;;;;;;;7.88;2.05;;;11.30;70.60;;;;;;5034944;28;20108;-75
2022/02/01 03:53:41;;;;;;;10.82;2.00;;;11.30;70.60;;;;;;5051607;28;20033;-73
2022/02/01 03:56:07;;;;;;;9.75;2.20;;;11.30;70.60;;;;;;5048967;28;20462;-74
2022/02/01 03:58:32;;;;;;;11.43;2.10;;;11.30;70.60;;;;;;5049204;28;20021;-74
2022/02/01 04:00:59;;;;;;;9.52;2.13;;;11.30;70.60;;;;;;5036258;28;20030;-74
2022/02/01 04:03:24;;;;;;;10.45;2.38;;;11.30;70.60;;;;;;5034548;28;20146;-75
2022/02/01 04:05:50;;;;;;;8.15;2.03;;;11.30;70.70;;;;;;5051946;28;20060;-74
2022/02/01 04:08:18;;;;;;;10.80;2.25;;;11.30;70.70;;;;;;5049640;28;20501;-75
2022/02/01 04:10:45;;;;;;;9.85;2.00;;;11.30;70.70;;;;;;5051107;28;20083;-74
2022/02/01 04:13:10;;;;;;;9.10;2.67;;;11.30;70.80;;;;;;5052196;28;20035;-74
2022/02/01 04:15:36;;;;;;;8.48;1.77;;;11.30;70.80;;;;;;5050461;28;20021;-75
2022/02/01 04:18:02;;;;;;;9.65;2.30;;;11.30;70.90;;;;;;5034896;28;20033;-74
2022/02/01 04:20:28;;;;;;;9.48;2.05;;;11.30;70.90;;;;;;5031066;28;20059;-75
2022/02/01 04:22:53;;;;;;;8.15;1.90;;;11.30;71.00;;;;;;5032648;28;20025;-75
2022/02/01 04:25:19;;;;;;;11.30;2.40;;;11.30;71.00;;;;;;5048112;28;20106;-74
2022/02/01 04:27:45;;;;;;;8.27;1.90;;;11.30;71.00;;;;;;5032433;28;20112;-73
2022/02/01 04:30:13;;;;;;;9.65;1.85;;;11.30;71.10;;;;;;5047305;28;20064;-75
2022/02/01 04:32:43;;;;;;;7.35;1.80;;;11.30;71.10;;;;;;5046261;28;20037;-74
2022/02/01 04:35:15;;;;;;;8.23;1.92;;;11.30;71.10;;;;;;5039803;28;20064;-74
2022/02/01 04:37:41;;;;;;;8.50;2.17;;;11.30;71.20;;;;;;5041704;28;20083;-74
2022/02/01 04:40:09;;;;;;;8.57;2.05;;;11.30;71.20;;;;;;5034617;28;20026;-74
2022/02/01 04:42:37;;;;;;;8.23;2.15;;;11.30;71.20;;;;;;5048401;28;20035;-74
2022/02/01 04:45:05;;;;;;;8.73;2.20;;;11.20;71.20;;;;;;5044848;28;20557;-74
2022/02/01 04:47:31;;;;;;;9.15;2.67;;;11.20;71.20;;;;;;5032344;28;20179;-74
2022/02/01 04:49:59;;;;;;;10.85;2.08;;;11.20;71.30;;;;;;5035947;28;20021;-74
2022/02/01 04:52:25;;;;;;;10.20;2.15;;;11.20;71.20;;;;;;5052009;28;20108;-74
2022/02/01 04:54:50;;;;;;;8.90;1.92;;;11.30;71.30;;;;;;5051905;28;20100;-74
2022/02/01 04:57:16;;;;;;;9.15;2.00;;;11.30;71.40;;;;;;5032693;28;20064;-74
2022/02/01 04:59:41;;;;;;;8.05;1.88;;;11.20;71.30;;;;;;5030564;28;20066;-75
2022/02/01 05:02:07;;;;;;;9.18;2.10;;;11.20;71.40;;;;;;5048642;28;20124;-74
2022/02/01 05:04:32;;;;;;;10.43;2.10;;;11.20;71.40;;;;;;5042813;28;20041;-74
2022/02/01 05:06:58;;;;;;;8.35;1.83;;;11.20;71.40;;;;;;5030708;28;20029;-74
2022/02/01 05:09:25;;;;;;;7.50;1.67;;;11.20;71.50;;;;;;5035409;28;20032;-74
2022/02/01 05:11:53;;;;;;;8.75;2.05;;;11.20;71.50;;;;;;5038934;28;20121;-74
2022/02/01 05:14:27;;;;;;;9.80;1.98;;;11.20;71.50;;;;;;5031724;28;20494;-74
2022/02/01 05:19:33;;;;;;;7.93;2.17;;;11.20;71.60;;;;;;5043669;28;20045;-74
2022/02/01 05:22:06;;;;;;;9.82;2.08;;;11.20;71.60;;;;;;5050937;28;20021;-74
2022/02/01 05:24:35;;;;;;;8.38;1.88;;;11.20;71.60;;;;;;5050158;28;20033;-74
2022/02/01 05:27:03;;;;;;;8.57;2.03;;;11.20;71.70;;;;;;5050931;28;20029;-74
2022/02/01 05:29:28;;;;;;;8.85;2.10;;;11.20;71.60;;;;;;5048960;28;20031;-74
2022/02/01 05:31:54;;;;;;;10.38;2.33;;;11.20;71.70;;;;;;5033403;28;20460;-73
2022/02/01 05:34:20;;;;;;;9.38;1.77;;;11.20;71.80;;;;;;5051448;28;20028;-74
2022/02/01 05:36:46;;;;;;;7.55;1.67;;;11.20;71.80;;;;;;5038455;28;20121;-74
2022/02/01 05:39:20;;;;;;;9.45;2.03;;;11.20;71.80;;;;;;5045200;28;20108;-75
2022/02/01 05:41:46;;;;;;;9.82;1.85;;;11.20;71.70;;;;;;5048151;28;20021;-75
2022/02/01 05:44:13;;;;;;;9.27;2.38;;;11.20;71.80;;;;;;5046927;28;20071;-76
2022/02/01 05:46:40;;;;;;;9.85;2.22;;;11.20;71.80;;;;;;5051359;28;20063;-74
2022/02/01 05:49:06;;;;;;;8.80;2.20;;;11.20;71.80;;;;;;5040616;28;20025;-72
2022/02/01 05:51:32;;;;;;;8.02;1.70;;;11.00;71.70;;;;;;5033114;28;20126;-70
2022/02/01 05:53:58;;;;;;;10.90;2.40;;;11.20;71.90;;;;;;5030574;28;20109;-75
2022/02/01 05:56:23;;;;;;;8.13;1.75;;;11.10;71.80;;;;;;5036679;28;20437;-75
2022/02/01 05:58:49;;;;;;;6.88;2.17;;;11.20;71.90;;;;;;5039834;28;20021;-75
2022/02/01 06:01:18;;;;;;;16.40;2.65;;;11.20;71.90;;;;;;5051134;28;20120;-75
2022/02/01 06:03:44;;;;;;;18.25;2.00;;;11.20;72.30;;;;;;5036465;28;20029;-79
2022/02/01 06:06:09;;;;;;;8.88;1.88;;;11.20;71.80;;;;;;5049086;28;20028;-77
2022/02/01 06:08:35;;;;;;;12.50;2.10;;;11.20;71.80;;;;;;5041278;28;20288;-76
2022/02/01 06:11:00;;;;;;;8.60;1.60;;;11.20;71.80;;;;;;5047043;28;20024;-76
2022/02/01 06:13:26;;;;;;;8.15;2.20;;;11.20;71.90;;;;;;5046102;28;20029;-76
2022/02/01 06:15:52;;;;;;;7.57;1.90;;;11.10;71.90;;;;;;5047911;28;20029;-79
2022/02/01 06:18:18;;;;;;;8.60;2.20;;;11.10;71.90;;;;;;5065773;28;20775;-77
2022/02/01 06:20:44;;;;;;;8.77;1.52;;;11.10;71.80;;;;;;5039443;28;20057;-77
2022/02/01 06:23:13;;;;;;;12.13;2.40;;;11.10;71.70;;;;;;5035778;28;20037;-80
2022/02/01 06:25:48;;;;;;;11.88;2.00;;;11.00;71.00;;;;;;5031256;28;20052;-77
2022/02/01 06:28:21;;;;;;;10.43;1.67;;;11.00;71.40;;;;;;5030143;28;20038;-78
2022/02/01 06:30:47;;;;;;;9.82;1.90;;;11.00;71.50;;;;;;5039436;28;20029;-77
2022/02/01 06:33:13;;;;;;;8.52;1.67;;;11.10;71.70;;;;;;5039968;28;20068;-78
2022/02/01 06:35:40;;;;;;;11.73;1.85;;;11.10;71.70;;;;;;5041252;28;20055;-77
2022/02/01 06:38:06;;;;;;;27.17;2.60;;;11.10;71.80;;;;;;5048295;28;20115;-76
2022/02/01 06:40:31;;;;;;;15.07;2.22;;;11.10;71.20;;;;;;5060276;28;20254;-78
2022/02/01 06:42:57;;;;;;;15.27;2.67;;;11.10;71.40;;;;;;5067341;28;20054;-77
2022/02/01 06:45:23;;;;;;;13.93;2.50;;;11.10;71.50;;;;;;5068474;28;20032;-79
2022/02/01 06:47:49;;;;;;;10.27;1.73;;;11.10;71.60;;;;;;5068210;28;20154;-78
2022/02/01 06:50:19;;;;;;;9.85;2.17;;;11.10;71.70;;;;;;5067980;28;20108;-76
2022/02/01 06:52:46;;;;;;;10.55;2.15;;;11.10;71.80;;;;;;5053209;28;20040;-78
2022/02/01 06:55:13;;;;;;;9.75;1.67;;;11.00;71.70;;;;;;5048511;28;20078;-77
2022/02/01 06:57:39;;;;;;;9.05;1.80;;;11.10;71.80;;;;;;5046818;28;20498;-77
2022/02/01 07:00:07;;;;;;;8.32;1.63;;;11.10;71.80;;;;;;5048082;28;20029;-76
2022/02/01 07:02:33;;;;;;;8.27;1.88;;;11.10;71.90;;;;;;5047046;28;20058;-76
2022/02/01 07:04:58;;;;;;;10.07;1.80;;;11.10;71.90;;;;;;5046824;28;20491;-78
2022/02/01 07:07:24;;;;;;;7.70;1.63;;;11.10;72.00;;;;;;5047523;28;20547;-77
2022/02/01 07:09:50;;;;;;;10.52;1.80;;;11.10;72.00;;;;;;5047188;28;20071;-76
2022/02/01 07:12:15;;;;;;;7.47;1.90;;;11.10;72.00;;;;;;5047140;28;20033;-77
2022/02/01 07:14:41;;;;;;;9.02;1.85;;;11.10;72.00;;;;;;5046907;28;20525;-77
2022/02/01 07:17:06;;;;;;;9.00;1.95;;;11.10;72.10;;;;;;5047107;28;20126;-77
2022/02/01 07:19:32;;;;;;;8.38;2.28;;;11.00;72.00;;;;;;5048292;28;20501;-79
2022/02/01 07:21:57;;;;;;;8.23;1.50;;;11.10;72.10;;;;;;5046645;28;20035;-76
2022/02/01 07:24:29;;;;;;;6.15;1.60;;;11.10;72.10;;;;;;5047380;28;20036;-76
2022/02/01 07:26:58;;;;;;;8.20;2.00;;;11.00;72.10;;;;;;5046694;28;20071;-77
2022/02/01 07:29:24;;;;;;;7.03;1.60;;;11.10;72.10;;;;;;5044926;28;20390;-76
2022/02/01 07:31:51;;;;;;;10.70;2.08;;;11.10;72.10;;;;;;5045679;28;20631;-77
2022/02/01 07:34:16;;;;;;;7.18;1.92;;;11.10;72.10;;;;;;5046471;28;20474;-76
2022/02/01 07:36:42;;;;;;;9.85;2.20;;;11.10;72.10;;;;;;5045761;28;20028;-78
2022/02/01 07:39:09;;;;;;;10.75;1.63;;;11.00;72.10;;;;;;5047059;28;20020;-76
2022/02/01 07:41:34;;;;;;;8.10;1.60;;;11.00;72.10;;;;;;5045686;28;20021;-77
2022/02/01 07:44:00;;;;;;;8.95;2.13;;;11.00;72.10;;;;;;5045476;28;20110;-78
2022/02/01 07:46:26;;;;;;;8.02;1.98;;;11.00;72.10;;;;;;5045870;28;20116;-78
2022/02/01 07:48:51;;;;;;;10.25;1.70;;;11.00;72.20;;;;;;5047226;28;20083;-77
2022/02/01 07:51:17;;;;;;;6.57;1.67;;;11.00;72.10;;;;;;5045388;28;20028;-78
2022/02/01 07:53:43;;;;;;;6.50;1.50;;;11.00;72.20;;;;;;5045434;28;20021;-77
2022/02/01 07:56:08;;;;;;;7.00;1.58;;;11.10;72.20;;;;;;5045828;28;20116;-79
2022/02/01 07:58:34;;;;;;;7.63;1.77;;;11.00;72.20;;;;;;5046855;28;20045;-77
2022/02/01 08:01:00;;;;;;;7.75;1.67;;;11.00;72.20;;;;;;5046357;28;20025;-77
2022/02/01 08:03:26;;;;;;;8.02;1.70;;;11.00;72.20;;;;;;5046511;28;20052;-77
2022/02/01 08:05:51;;;;;;;6.60;1.90;;;11.00;72.20;;;;;;5046902;28;20383;-77
2022/02/01 08:08:17;;;;;;;8.57;2.10;;;11.00;72.20;;;;;;5045212;28;20031;-76
2022/02/01 08:10:47;;;;;;;8.20;2.35;;;11.00;72.30;;;;;;5045134;28;20033;-78
2022/02/01 08:16:31;;;;;;;7.68;2.22;;;11.00;72.20;;;;;;5046497;28;20036;-76
2022/02/01 08:21:26;;;;;;;8.45;2.15;;;11.00;72.30;;;;;;5046393;28;20033;-77
2022/02/01 08:23:52;;;;;;;9.38;2.13;;;11.00;72.30;;;;;;5046153;28;20489;-78
2022/02/01 08:26:18;;;;;;;7.30;1.95;;;11.00;72.30;;;;;;5044915;28;20094;-77
2022/02/01 08:28:44;;;;;;;8.73;2.33;;;11.00;72.30;;;;;;5045098;28;20029;-78
2022/02/01 08:31:10;;;;;;;8.07;1.90;;;11.00;72.30;;;;;;5044494;28;20033;-77
2022/02/01 08:33:38;;;;;;;9.40;1.92;;;11.00;72.30;;;;;;5046234;28;20033;-79
2022/02/01 08:36:04;;;;;;;7.45;2.03;;;11.00;72.30;;;;;;5045652;28;20044;-77
2022/02/01 08:38:30;;;;;;;5.65;1.73;;;11.00;72.30;;;;;;5044454;28;20473;-77
2022/02/01 08:40:58;;;;;;;8.80;2.20;;;11.00;72.20;;;;;;5044726;28;20027;-78
2022/02/01 08:43:23;;;;;;;6.93;2.00;;;11.00;72.30;;;;;;5044661;28;20029;-77
2022/02/01 08:45:49;;;;;;;6.43;1.80;;;11.00;72.30;;;;;;5044423;28;20040;-76
2022/02/01 08:48:15;;;;;;;7.82;1.90;;;11.00;72.30;;;;;;5046287;28;20025;-77
2022/02/01 08:50:40;;;;;;;9.10;2.08;;;11.00;72.40;;;;;;5044002;28;20033;-77
2022/02/01 08:53:23;;;;;;;6.90;1.77;;;11.00;72.40;;;;;;5044649;28;20486;-76
2022/02/01 08:56:02;;;;;;;7.80;2.10;;;11.00;72.30;;;;;;5044474;28;20115;-77
2022/02/01 08:58:28;;;;;;;7.45;1.83;;;11.00;72.40;;;;;;5044739;28;20025;-77
2022/02/01 09:00:54;;;;;;;8.25;2.15;;;11.00;72.50;;;;;;5044177;28;20698;-79
2022/02/01 09:03:20;;;;;;;6.60;1.83;;;11.00;72.40;;;;;;5045782;28;20029;-78
2022/02/01 09:05:49;;;;;;;6.95;1.85;;;11.00;72.50;;;;;;5045617;28;20025;-77
2022/02/01 09:08:15;;;;;;;6.75;1.80;;;11.00;72.50;;;;;;5045613;28;20021;-76
2022/02/01 09:10:41;;;;;;;8.07;2.17;;;11.00;72.50;;;;;;5045482;28;20062;-78
2022/02/01 09:13:07;;;;;;;6.93;2.13;;;11.00;72.60;;;;;;5045540;28;20032;-79
2022/02/01 09:15:33;;;;;;;5.93;2.05;;;11.00;72.60;;;;;;5044346;28;20025;-77
2022/02/01 09:18:00;;;;;;;8.10;2.20;;;10.90;72.60;;;;;;5044328;28;20120;-78
2022/02/01 09:20:27;;;;;;;7.93;2.50;;;10.90;72.60;;;;;;5045155;28;20490;-77
2022/02/01 09:22:52;;;;;;;6.97;2.67;;;11.00;72.70;;;;;;5044474;28;20037;-77
2022/02/01 09:25:19;;;;;;;9.05;2.90;;;10.90;72.70;;;;;;5045564;28;20409;-76
2022/02/01 09:27:46;;;;;;;8.68;2.50;;;10.90;72.70;;;;;;5050036;28;20033;-77
2022/02/01 09:30:14;;;;;;;7.03;2.40;;;10.90;72.70;;;;;;5047925;28;20040;-77
2022/02/01 09:32:40;;;;;;;7.40;2.83;;;11.00;72.80;;;;;;5047972;28;20072;-75
2022/02/01 09:35:06;;;;;;;9.18;2.92;;;10.90;72.70;;;;;;5048958;28;20025;-77
2022/02/01 09:37:32;;;;;;;8.05;3.45;;;10.90;72.70;;;;;;5047877;28;20078;-77
2022/02/01 09:39:57;;;;;;;8.75;3.78;;;10.90;72.80;;;;;;5049187;28;20056;-77
2022/02/01 09:42:27;;;;;;;10.82;4.70;;;10.90;72.70;;;;;;5048036;28;20029;-77
2022/02/01 09:44:56;;;;;;;11.07;5.72;;;10.90;72.80;;;;;;5047677;28;20040;-76
2022/02/01 09:47:36;;;;;;;15.57;6.82;;;10.90;72.90;;;;;;5047831;28;20032;-75
2022/02/01 09:50:03;;;;;;;12.05;6.60;;;11.00;72.90;;;;;;5047434;28;20040;-78
2022/02/01 09:52:30;;;;;;;11.50;6.45;;;10.90;72.90;;;;;;5047816;28;20405;-78
2022/02/01 09:54:56;;;;;;;13.15;6.32;;;10.90;73.00;;;;;;5048921;28;20025;-77
2022/02/01 09:57:22;;;;;;;12.32;6.75;;;10.90;72.90;;;;;;5047742;28;20052;-76
2022/02/01 09:59:55;;;;;;;13.43;6.70;;;10.90;73.00;;;;;;5048833;28;20022;-76
2022/02/01 10:02:23;;;;;;;12.02;6.18;;;10.90;73.00;;;;;;5047769;28;20062;-78
2022/02/01 10:05:01;;;;;;;11.63;6.63;;;10.90;73.10;;;;;;5047575;28;20033;-77
2022/02/01 10:07:26;;;;;;;10.52;5.85;;;10.90;73.10;;;;;;5047628;28;20436;-77
2022/02/01 10:09:56;;;;;;;11.63;6.18;;;10.90;73.20;;;;;;5047424;28;20037;-77
2022/02/01 10:12:23;;;;;;;10.77;5.85;;;10.90;73.20;;;;;;5048850;28;20059;-77
2022/02/01 10:14:55;;;;;;;9.43;5.38;;;10.90;73.20;;;;;;5048470;28;20025;-77
2022/02/01 10:17:24;;;;;;;;;;;10.90;73.20;;;;;;5047899;28;20453;-77
2022/02/01 10:19:49;;;;;;;9.73;5.50;;;10.90;73.20;;;;;;5047199;28;19912;-77
2022/02/01 10:22:15;;;;;;;10.98;5.68;;;10.90;73.20;;;;;;5048569;28;20029;-77
2022/02/01 10:24:42;;;;;;;10.32;5.53;;;10.90;73.30;;;;;;5048406;28;20029;-77
2022/02/01 10:27:19;;;;;;;10.23;5.78;;;10.90;73.30;;;;;;5047445;28;20057;-77
2022/02/01 10:30:13;;;;;;;10.05;5.55;;;10.90;73.30;;;;;;5047156;28;20029;-77
2022/02/01 10:37:58;;;;;;;10.20;5.95;;;10.90;73.40;;;;;;5047594;28;20029;-77
2022/02/01 10:40:39;;;;;;;11.35;6.53;;;10.90;73.50;;;;;;5046678;28;20104;-77
2022/02/01 10:43:35;;;;;;;10.70;5.78;;;10.90;73.50;;;;;;5046906;28;20123;-77
2022/02/01 10:46:13;;;;;;;9.10;5.60;;;10.90;73.60;;;;;;5046397;28;20506;-76
2022/02/01 10:48:45;;;;;;;11.63;6.30;;;10.90;73.60;;;;;;5046397;28;20078;-77
2022/02/01 10:51:22;;;;;;;10.93;6.47;;;10.90;73.60;;;;;;5046997;28;20037;-77
2022/02/01 10:53:48;;;;;;;10.30;6.43;;;10.90;73.70;;;;;;5046526;28;20032;-76
2022/02/01 10:56:19;;;;;;;11.40;6.25;;;10.90;73.70;;;;;;5047975;28;20029;-77
2022/02/01 10:58:45;;;;;;;11.10;6.22;;;10.90;73.70;;;;;;5046739;28;20025;-78
2022/02/01 11:01:11;;;;;;;10.93;6.60;;;10.90;73.80;;;;;;5046473;28;20036;-77
2022/02/01 11:03:43;;;;;;;9.95;6.07;;;10.90;73.90;;;;;;5046485;28;20033;-76
2022/02/01 11:06:10;;;;;;;10.80;6.63;;;10.80;73.80;;;;;;5046314;28;20117;-75
2022/02/01 11:08:39;;;;;;;12.30;6.20;;;10.90;73.90;;;;;;5047939;28;20028;-77
2022/02/01 11:11:05;;;;;;;9.38;6.18;;;10.90;73.90;;;;;;5046224;28;20469;-77
2022/02/01 11:13:43;;;;;;;8.75;5.22;;;10.90;74.00;;;;;;5046179;28;20500;-76
2022/02/01 11:16:13;;;;;;;9.00;5.30;;;10.90;74.00;;;;;;5047694;28;20402;-77
2022/02/01 11:18:39;;;;;;;10.20;5.68;;;10.90;74.10;;;;;;5046033;28;20037;-76
2022/02/01 11:21:10;;;;;;;8.80;5.78;;;10.90;74.10;;;;;;5045972;28;20041;-76
2022/02/01 11:23:58;;;;;;;10.15;5.68;;;10.90;74.10;;;;;;5047642;28;20031;-77
2022/02/01 11:26:35;;;;;;;8.77;5.38;;;10.90;74.20;;;;;;5047643;28;20033;-76
2022/02/01 11:31:51;;;;;;;9.18;5.32;;;10.90;74.30;;;;;;5047150;28;20025;-77
2022/02/01 11:34:25;;;;;;;8.15;5.13;;;10.90;74.30;;;;;;5045424;28;20060;-77
2022/02/01 11:37:04;;;;;;;7.72;5.30;;;10.90;74.30;;;;;;5047138;28;20029;-76
2022/02/01 11:39:31;;;;;;;8.55;5.40;;;10.90;74.40;;;;;;5045652;28;20120;-78
2022/02/01 11:41:57;;;;;;;8.70;5.35;;;10.90;74.40;;;;;;5046986;28;20025;-76
2022/02/01 11:44:28;;;;;;;8.60;5.50;;;10.90;74.40;;;;;;5045687;28;20029;-77
2022/02/01 11:47:06;;;;;;;7.50;5.10;;;10.90;74.40;;;;;;5045747;28;20060;-78
2022/02/01 11:49:33;;;;;;;6.93;4.45;;;10.90;74.40;;;;;;5045483;28;20414;-80
2022/02/01 11:52:13;;;;;;;7.13;4.45;;;10.80;74.40;;;;;;5045513;28;20036;-77
2022/02/01 11:54:42;;;;;;;7.65;5.20;;;10.80;74.50;;;;;;5045397;28;20059;-78
2022/02/01 11:57:16;;;;;;;6.93;4.35;;;10.90;74.60;;;;;;5045648;28;20029;-76
2022/02/01 11:59:50;;;;;;;8.55;4.38;;;10.80;74.50;;;;;;5046688;28;20104;-76
2022/02/01 12:02:25;;;;;;;7.15;4.40;;;10.80;74.60;;;;;;5045559;28;20067;-76
2022/02/01 12:04:51;;;;;;;6.15;3.67;;;10.80;74.60;;;;;;5046362;28;20017;-75
2022/02/01 12:07:23;;;;;;;6.70;4.05;;;10.80;74.70;;;;;;5045360;28;20027;-77
2022/02/01 12:09:48;;;;;;;;;;;10.80;74.70;;;;;;5046972;28;20021;-76
2022/02/01 12:12:21;;;;;;;6.43;3.97;;;10.80;74.80;;;;;;5046173;28;19974;-76
2022/02/01 12:14:55;;;;;;;6.53;3.97;;;10.90;75.40;;;;;;5046054;28;20029;-77
2022/02/01 12:17:22;;;;;;;7.35;4.07;;;10.80;74.90;;;;;;5044037;28;20055;-77
2022/02/01 12:19:54;;;;;;;6.90;4.22;;;10.90;75.00;;;;;;5033269;28;20040;-76
2022/02/01 12:22:25;;;;;;;;;;;10.90;74.90;;;;;;5026855;28;20029;-76
2022/02/01 12:24:52;;;;;;;9.18;4.70;;;10.90;75.00;;;;;;5035484;28;20043;-78
2022/02/01 12:27:18;;;;;;;10.07;5.78;;;10.90;75.00;;;;;;5044629;28;20036;-76
2022/02/01 12:29:43;;;;;;;11.98;7.65;;;10.90;75.00;;;;;;5047320;28;20501;-78
2022/02/01 12:32:10;;;;;;;16.80;10.20;;;10.90;75.10;;;;;;5041922;28;20032;-76
2022/02/01 12:34:36;;;;;;;25.90;12.73;;;10.90;75.10;;;;;;5026011;28;20032;-79
2022/02/01 12:37:02;;;;;;;28.92;13.90;;;10.90;75.10;;;;;;5027074;28;20508;-76
2022/02/01 12:39:35;;;;;;;28.63;14.32;;;10.90;75.10;;;;;;5028051;28;20033;-75
2022/02/01 12:42:13;;;;;;;26.52;13.18;;;10.90;75.20;;;;;;5026455;28;20633;-73
2022/02/01 12:47:08;;;;;;;22.95;13.55;;;10.90;75.30;;;;;;5027724;28;20026;-74
2022/02/01 12:49:39;;;;;;;25.83;12.95;;;10.80;75.30;;;;;;5026757;28;20109;-74
2022/02/01 12:52:24;;;;;;;27.58;13.40;;;10.90;75.50;;;;;;5026896;28;20025;-76
2022/02/01 12:55:12;;;;;;;24.27;11.38;;;10.80;75.40;;;;;;5024469;28;20120;-73
2022/02/01 12:57:39;;;;;;;23.40;11.70;;;10.80;75.40;;;;;;5024076;28;20048;-72
2022/02/01 13:00:10;;;;;;;22.83;11.45;;;10.80;75.50;;;;;;5023473;28;20120;-74
2022/02/01 13:02:36;;;;;;;20.75;11.10;;;10.80;75.50;;;;;;5024280;28;20084;-75
2022/02/01 13:05:05;;;;;;;17.38;9.05;;;10.80;75.60;;;;;;5025696;28;20057;-74
2022/02/01 13:13:29;;;;;;;16.13;8.32;;;10.80;75.80;;;;;;5025814;28;20040;-74
2022/02/01 13:16:17;;;;;;;17.58;7.85;;;10.80;76.00;;;;;;5024318;28;20029;-75
2022/02/01 13:21:20;;;;;;;13.10;7.07;;;10.80;76.20;;;;;;5025019;28;20034;-74
2022/02/01 13:23:51;;;;;;;14.80;7.28;;;10.80;76.20;;;;;;5025141;28;20144;-76
2022/02/01 13:26:20;;;;;;;11.80;6.07;;;10.80;76.20;;;;;;5023922;28;20569;-73
2022/02/01 13:28:56;;;;;;;12.00;6.28;;;10.80;76.30;;;;;;5025470;28;20041;-74
2022/02/01 13:31:26;;;;;;;12.55;6.00;;;10.80;76.30;;;;;;5025191;28;20506;-74
2022/02/01 13:34:03;;;;;;;11.77;5.97;;;10.80;76.30;;;;;;5024914;28;20449;-74
2022/02/01 13:36:30;;;;;;;10.63;6.07;;;10.80;76.40;;;;;;5023769;28;20029;-74
2022/02/01 13:39:01;;;;;;;10.50;5.57;;;10.80;76.30;;;;;;5023875;28;20037;-76
2022/02/01 13:41:29;;;;;;;10.83;4.77;;;10.80;76.40;;;;;;5023866;28;20030;-73
2022/02/01 13:44:00;;;;;;;12.38;5.20;;;10.80;76.50;;;;;;5025273;28;20050;-75
2022/02/01 13:46:28;;;;;;;10.38;4.88;;;10.80;76.50;;;;;;5023928;28;20029;-74
2022/02/01 13:49:04;;;;;;;8.85;4.65;;;10.80;76.50;;;;;;5025096;28;20064;-73
2022/02/01 13:51:30;;;;;;;10.18;4.97;;;10.80;76.50;;;;;;5024571;28;20104;-71
2022/02/01 13:54:02;;;;;;;8.82;4.88;;;10.80;76.50;;;;;;5024141;28;20047;-74
2022/02/01 13:56:30;;;;;;;8.23;4.22;;;10.80;76.50;;;;;;5034959;28;20029;-73
2022/02/01 13:59:08;;;;;;;9.95;4.57;;;10.80;76.60;;;;;;5033355;28;20033;-72
2022/02/01 14:01:35;;;;;;;8.32;4.00;;;10.80;76.70;;;;;;5034629;28;20025;-73
2022/02/01 14:04:06;;;;;;;8.88;4.03;;;10.70;76.70;;;;;;5037829;28;20036;-72
2022/02/01 14:09:34;;;;;;;9.65;4.03;;;10.70;76.80;;;;;;5039413;28;20033;-72
2022/02/01 14:36:11;;;;;;;73.50;8.82;;;10.80;76.70;;;;;;5047180;28;20786;-73
2022/02/01 14:44:28;;;;;;;91.22;9.93;;;10.90;76.80;;;;;;5047500;28;20060;-74
2022/02/01 14:46:50;;;;;;;89.57;10.88;;;10.90;76.90;;;;;;5046814;28;20033;-74
2022/02/01 14:49:16;;;;;;;85.32;9.43;;;10.80;77.10;;;;;;5046287;28;20039;-72
2022/02/01 14:51:41;;;;;;;77.82;9.40;;;10.80;77.30;;;;;;5045724;28;20097;-75